sensor_id;sensor_type;location;lat;lon;timestamp;temperature;humidity
3232;DHT22;1628;48.884;9.210;2022-12-18T05:02:37;-7.50;99.90
3232;DHT22;1628;48.884;9.210;2022-12-18T05:05:05;-7.50;99.90
3232;DHT22;1628;48.884;9.210;2022-12-18T05:07:31;-7.60;99.90
3232;DHT22;1628;48.884;9.210;2022-12-18T05:09:58;-7.60;99.90
3232;DHT22;1628;48.884;9.210;2022-12-18T05:12:25;-7.60;99.90
3232;DHT22;1628;48.884;9.210;2022-12-18T05:14:52;-7.70;99.90
3232;DHT22;1628;48.884;9.210;2022-12-18T05:17:18;-7.70;99.90
3232;DHT22;1628;48.884;9.210;2022-12-18T05:19:46;-7.70;99.90
3232;DHT22;1628;48.884;9.210;2022-12-18T05:22:13;-7.70;99.90
3232;DHT22;1628;48.884;9.210;2022-12-18T05:24:40;-7.70;99.90
3232;DHT22;1628;48.884;9.210;2022-12-18T05:27:06;-7.70;99.90
3232;DHT22;1628;48.884;9.210;2022-12-18T05:29:33;-7.70;99.90
3232;DHT22;1628;48.884;9.210;2022-12-18T05:32:00;-7.70;99.90
3232;DHT22;1628;48.884;9.210;2022-12-18T05:34:27;-7.70;99.90
3232;DHT22;1628;48.884;9.210;2022-12-18T05:36:55;-7.70;99.90
3232;DHT22;1628;48.884;9.210;2022-12-18T05:39:21;-7.70;99.90
3232;DHT22;1628;48.884;9.210;2022-12-18T05:41:48;-7.70;99.90
3232;DHT22;1628;48.884;9.210;2022-12-18T05:44:14;-7.70;99.90
3232;DHT22;1628;48.884;9.210;2022-12-18T05:46:41;-7.70;99.90
3232;DHT22;1628;48.884;9.210;2022-12-18T05:49:08;-7.70;99.90
3232;DHT22;1628;48.884;9.210;2022-12-18T05:51:35;-7.60;99.90
3232;DHT22;1628;48.884;9.210;2022-12-18T05:54:03;-7.70;99.90
3232;DHT22;1628;48.884;9.210;2022-12-18T05:56:30;-7.70;99.90
3232;DHT22;1628;48.884;9.210;2022-12-18T05:58:56;-7.80;99.90
3232;DHT22;1628;48.884;9.210;2022-12-18T06:01:25;-7.90;99.90
3232;DHT22;1628;48.884;9.210;2022-12-18T06:03:52;-7.90;99.90
3232;DHT22;1628;48.884;9.210;2022-12-18T06:06:21;-8.00;99.90
3232;DHT22;1628;48.884;9.210;2022-12-18T06:08:49;-8.00;99.90
3232;DHT22;1628;48.884;9.210;2022-12-18T06:11:19;-8.00;99.90
3232;DHT22;1628;48.884;9.210;2022-12-18T06:13:46;-8.00;99.90
3232;DHT22;1628;48.884;9.210;2022-12-18T06:16:13;-8.00;99.90
3232;DHT22;1628;48.884;9.210;2022-12-18T06:18:39;-8.00;99.90
3232;DHT22;1628;48.884;9.210;2022-12-18T06:21:06;-8.00;99.90
3232;DHT22;1628;48.884;9.210;2022-12-18T06:23:33;-8.00;99.90
3232;DHT22;1628;48.884;9.210;2022-12-18T06:26:03;-8.00;99.90
3232;DHT22;1628;48.884;9.210;2022-12-18T06:28:31;-8.10;99.90
3232;DHT22;1628;48.884;9.210;2022-12-18T06:30:58;-8.10;99.90
3232;DHT22;1628;48.884;9.210;2022-12-18T06:33:26;-8.10;99.90
3232;DHT22;1628;48.884;9.210;2022-12-18T06:35:53;-8.10;99.90
3232;DHT22;1628;48.884;9.210;2022-12-18T06:38:20;-8.20;99.90
3232;DHT22;1628;48.884;9.210;2022-12-18T06:40:47;-8.20;99.90
3232;DHT22;1628;48.884;9.210;2022-12-18T06:43:13;-8.20;99.90
3232;DHT22;1628;48.884;9.210;2022-12-18T06:45:41;-8.20;99.90
3232;DHT22;1628;48.884;9.210;2022-12-18T06:48:08;-8.20;99.90
3232;DHT22;1628;48.884;9.210;2022-12-18T06:50:35;-8.20;99.90
3232;DHT22;1628;48.884;9.210;2022-12-18T06:53:01;-8.10;99.90
3232;DHT22;1628;48.884;9.210;2022-12-18T06:55:28;-8.10;99.90
3232;DHT22;1628;48.884;9.210;2022-12-18T06:57:55;-8.00;99.90
3232;DHT22;1628;48.884;9.210;2022-12-18T07:00:21;-7.90;99.90
3232;DHT22;1628;48.884;9.210;2022-12-18T07:02:49;-7.90;99.90
3232;DHT22;1628;48.884;9.210;2022-12-18T07:05:16;-7.90;99.90
3232;DHT22;1628;48.884;9.210;2022-12-18T07:07:43;-7.80;99.90
3232;DHT22;1628;48.884;9.210;2022-12-18T07:10:10;-7.80;99.90
3232;DHT22;1628;48.884;9.210;2022-12-18T07:12:37;-7.80;99.90
3232;DHT22;1628;48.884;9.210;2022-12-18T07:15:04;-7.80;99.90
3232;DHT22;1628;48.884;9.210;2022-12-18T07:17:31;-7.80;99.90
3232;DHT22;1628;48.884;9.210;2022-12-18T07:19:59;-7.80;99.90
3232;DHT22;1628;48.884;9.210;2022-12-18T07:22:26;-7.90;99.90
3232;DHT22;1628;48.884;9.210;2022-12-18T07:24:53;-7.90;99.90
3232;DHT22;1628;48.884;9.210;2022-12-18T07:27:20;-7.90;99.90
3232;DHT22;1628;48.884;9.210;2022-12-18T07:29:47;-7.90;99.90
3232;DHT22;1628;48.884;9.210;2022-12-18T07:32:14;-7.90;99.90
3232;DHT22;1628;48.884;9.210;2022-12-18T07:34:41;-7.80;99.90
3232;DHT22;1628;48.884;9.210;2022-12-18T07:37:09;-7.80;99.90
3232;DHT22;1628;48.884;9.210;2022-12-18T07:39:35;-7.70;99.90
3232;DHT22;1628;48.884;9.210;2022-12-18T07:42:02;-7.60;99.90
3232;DHT22;1628;48.884;9.210;2022-12-18T07:44:47;-7.50;99.90
3232;DHT22;1628;48.884;9.210;2022-12-18T07:47:13;-7.40;99.90
3232;DHT22;1628;48.884;9.210;2022-12-18T07:49:40;-7.00;99.90
3232;DHT22;1628;48.884;9.210;2022-12-18T07:52:06;-6.50;99.90
3232;DHT22;1628;48.884;9.210;2022-12-18T07:54:36;-5.90;99.90
3232;DHT22;1628;48.884;9.210;2022-12-18T07:57:02;-5.30;99.90
3232;DHT22;1628;48.884;9.210;2022-12-18T07:59:29;-4.80;99.90
3232;DHT22;1628;48.884;9.210;2022-12-18T08:01:56;-4.30;99.90
3232;DHT22;1628;48.884;9.210;2022-12-18T08:04:22;-3.90;99.90
3232;DHT22;1628;48.884;9.210;2022-12-18T08:06:49;-3.60;99.90
3232;DHT22;1628;48.884;9.210;2022-12-18T08:09:16;-3.30;99.90
3232;DHT22;1628;48.884;9.210;2022-12-18T08:11:44;-3.00;99.90
3232;DHT22;1628;48.884;9.210;2022-12-18T08:14:11;-2.60;99.90
3232;DHT22;1628;48.884;9.210;2022-12-18T08:16:37;-2.10;99.90
3232;DHT22;1628;48.884;9.210;2022-12-18T08:19:04;-1.80;99.90
3232;DHT22;1628;48.884;9.210;2022-12-18T08:21:31;-1.30;99.90
3232;DHT22;1628;48.884;9.210;2022-12-18T08:23:59;-0.80;99.90
3232;DHT22;1628;48.884;9.210;2022-12-18T08:26:29;-0.20;99.90
3232;DHT22;1628;48.884;9.210;2022-12-18T08:28:59;0.20;99.90
3232;DHT22;1628;48.884;9.210;2022-12-18T08:31:27;0.60;99.90
3232;DHT22;1628;48.884;9.210;2022-12-18T08:33:54;1.00;99.90
3232;DHT22;1628;48.884;9.210;2022-12-18T08:36:22;1.40;99.90
3232;DHT22;1628;48.884;9.210;2022-12-18T08:38:49;1.60;99.70
3232;DHT22;1628;48.884;9.210;2022-12-18T08:41:17;2.10;98.40
3232;DHT22;1628;48.884;9.210;2022-12-18T08:43:44;2.40;99.30
3232;DHT22;1628;48.884;9.210;2022-12-18T08:46:33;2.80;97.70
3232;DHT22;1628;48.884;9.210;2022-12-18T08:49:00;3.20;95.90
3232;DHT22;1628;48.884;9.210;2022-12-18T08:51:27;3.70;95.60
3232;DHT22;1628;48.884;9.210;2022-12-18T08:53:53;4.10;93.80
3232;DHT22;1628;48.884;9.210;2022-12-18T08:56:20;4.40;92.90
3232;DHT22;1628;48.884;9.210;2022-12-18T08:58:47;4.60;91.80
3232;DHT22;1628;48.884;9.210;2022-12-18T09:01:13;4.70;91.00
3232;DHT22;1628;48.884;9.210;2022-12-18T09:03:41;5.10;88.70
3232;DHT22;1628;48.884;9.210;2022-12-18T09:06:13;5.20;86.60
3232;DHT22;1628;48.884;9.210;2022-12-18T09:08:41;4.30;83.40
3232;DHT22;1628;48.884;9.210;2022-12-18T09:11:12;3.40;86.90
3232;DHT22;1628;48.884;9.210;2022-12-18T09:13:39;2.30;90.20
3232;DHT22;1628;48.884;9.210;2022-12-18T09:16:06;1.30;92.50
3232;DHT22;1628;48.884;9.210;2022-12-18T09:18:33;0.70;94.60
3232;DHT22;1628;48.884;9.210;2022-12-18T09:21:07;0.20;96.20
3232;DHT22;1628;48.884;9.210;2022-12-18T09:23:34;-0.40;98.30
3232;DHT22;1628;48.884;9.210;2022-12-18T09:26:01;-0.90;99.90
3232;DHT22;1628;48.884;9.210;2022-12-18T09:28:28;-1.30;99.90
3232;DHT22;1628;48.884;9.210;2022-12-18T09:30:55;-1.70;99.90
3232;DHT22;1628;48.884;9.210;2022-12-18T09:33:21;-1.90;99.90
3232;DHT22;1628;48.884;9.210;2022-12-18T09:35:48;-2.30;99.90
3232;DHT22;1628;48.884;9.210;2022-12-18T09:38:17;-2.60;99.90
3232;DHT22;1628;48.884;9.210;2022-12-18T09:40:48;-2.70;99.90
3232;DHT22;1628;48.884;9.210;2022-12-18T09:43:17;-2.70;99.90
3232;DHT22;1628;48.884;9.210;2022-12-18T09:45:48;-2.80;99.90
3232;DHT22;1628;48.884;9.210;2022-12-18T09:48:18;-2.80;99.90
3232;DHT22;1628;48.884;9.210;2022-12-18T09:50:46;-2.70;99.90
3232;DHT22;1628;48.884;9.210;2022-12-18T09:53:18;-2.60;99.90
3232;DHT22;1628;48.884;9.210;2022-12-18T09:55:47;-2.60;99.90
3232;DHT22;1628;48.884;9.210;2022-12-18T09:58:18;-2.60;99.90
3232;DHT22;1628;48.884;9.210;2022-12-18T10:00:46;-2.60;99.90
3232;DHT22;1628;48.884;9.210;2022-12-18T10:03:14;-2.60;99.90
3232;DHT22;1628;48.884;9.210;2022-12-18T10:05:46;-2.50;99.90
3232;DHT22;1628;48.884;9.210;2022-12-18T10:08:24;-2.40;99.90
3232;DHT22;1628;48.884;9.210;2022-12-18T10:10:52;-2.20;99.90
3232;DHT22;1628;48.884;9.210;2022-12-18T10:13:23;-1.60;99.90
3232;DHT22;1628;48.884;9.210;2022-12-18T10:16:12;-1.10;99.90
3232;DHT22;1628;48.884;9.210;2022-12-18T10:18:59;-0.70;99.90
3232;DHT22;1628;48.884;9.210;2022-12-18T10:21:32;-0.70;99.90
3232;DHT22;1628;48.884;9.210;2022-12-18T10:24:08;-0.90;99.90
3232;DHT22;1628;48.884;9.210;2022-12-18T10:26:41;-1.00;99.90
3232;DHT22;1628;48.884;9.210;2022-12-18T10:29:10;-0.90;99.90
3232;DHT22;1628;48.884;9.210;2022-12-18T10:31:37;-0.90;99.90
3232;DHT22;1628;48.884;9.210;2022-12-18T10:34:04;-0.90;99.90
3232;DHT22;1628;48.884;9.210;2022-12-18T10:36:30;-0.80;99.90
3232;DHT22;1628;48.884;9.210;2022-12-18T10:39:16;-0.60;99.90
3232;DHT22;1628;48.884;9.210;2022-12-18T10:41:42;-0.20;99.90
3232;DHT22;1628;48.884;9.210;2022-12-18T10:44:12;0.20;99.90
3232;DHT22;1628;48.884;9.210;2022-12-18T10:46:39;0.60;99.90
3232;DHT22;1628;48.884;9.210;2022-12-18T10:49:18;0.90;99.90
3232;DHT22;1628;48.884;9.210;2022-12-18T10:51:46;1.00;99.90
3232;DHT22;1628;48.884;9.210;2022-12-18T10:54:17;1.00;99.90
3232;DHT22;1628;48.884;9.210;2022-12-18T10:56:44;0.90;99.90
3232;DHT22;1628;48.884;9.210;2022-12-18T10:59:13;0.70;99.90
3232;DHT22;1628;48.884;9.210;2022-12-18T11:01:49;0.40;99.90
3232;DHT22;1628;48.884;9.210;2022-12-18T11:04:19;0.20;99.90
3232;DHT22;1628;48.884;9.210;2022-12-18T11:06:55;0.20;99.90
3232;DHT22;1628;48.884;9.210;2022-12-18T11:09:25;0.10;99.90
3232;DHT22;1628;48.884;9.210;2022-12-18T11:11:53;0.10;99.90
3232;DHT22;1628;48.884;9.210;2022-12-18T11:14:23;0.20;99.90
3232;DHT22;1628;48.884;9.210;2022-12-18T11:16:51;0.10;99.90
3232;DHT22;1628;48.884;9.210;2022-12-18T11:19:32;0.20;99.90
3232;DHT22;1628;48.884;9.210;2022-12-18T11:22:00;0.30;99.90
3232;DHT22;1628;48.884;9.210;2022-12-18T11:24:31;0.40;99.90
3232;DHT22;1628;48.884;9.210;2022-12-18T11:27:00;0.50;99.90
3232;DHT22;1628;48.884;9.210;2022-12-18T11:29:32;0.50;99.90
3232;DHT22;1628;48.884;9.210;2022-12-18T11:32:21;0.40;99.90
3232;DHT22;1628;48.884;9.210;2022-12-18T11:34:53;0.50;99.90
3232;DHT22;1628;48.884;9.210;2022-12-18T11:37:24;0.50;99.90
3232;DHT22;1628;48.884;9.210;2022-12-18T11:39:56;0.60;99.90
3232;DHT22;1628;48.884;9.210;2022-12-18T11:42:27;0.60;99.90
3232;DHT22;1628;48.884;9.210;2022-12-18T11:44:59;0.60;99.90
3232;DHT22;1628;48.884;9.210;2022-12-18T11:47:31;0.60;99.90
3232;DHT22;1628;48.884;9.210;2022-12-18T11:50:03;0.60;99.90
3232;DHT22;1628;48.884;9.210;2022-12-18T11:52:39;0.60;99.90
3232;DHT22;1628;48.884;9.210;2022-12-18T11:55:12;0.60;99.90
3232;DHT22;1628;48.884;9.210;2022-12-18T11:57:48;0.70;99.90
3232;DHT22;1628;48.884;9.210;2022-12-18T12:00:18;0.70;99.90
3232;DHT22;1628;48.884;9.210;2022-12-18T12:03:01;0.80;99.90
3232;DHT22;1628;48.884;9.210;2022-12-18T12:05:45;0.80;99.90
3232;DHT22;1628;48.884;9.210;2022-12-18T12:08:19;0.80;99.90
3232;DHT22;1628;48.884;9.210;2022-12-18T12:10:57;0.70;99.90
3232;DHT22;1628;48.884;9.210;2022-12-18T12:13:38;0.80;99.90
3232;DHT22;1628;48.884;9.210;2022-12-18T12:16:12;0.80;99.90
3232;DHT22;1628;48.884;9.210;2022-12-18T12:18:55;0.80;99.90
3232;DHT22;1628;48.884;9.210;2022-12-18T12:21:31;0.80;99.90
3232;DHT22;1628;48.884;9.210;2022-12-18T12:24:12;0.70;99.90
3232;DHT22;1628;48.884;9.210;2022-12-18T12:26:52;0.60;99.90
3232;DHT22;1628;48.884;9.210;2022-12-18T12:29:34;0.80;99.90
3232;DHT22;1628;48.884;9.210;2022-12-18T12:32:11;0.70;99.90
3232;DHT22;1628;48.884;9.210;2022-12-18T12:34:47;0.60;99.90
3232;DHT22;1628;48.884;9.210;2022-12-18T12:37:28;0.60;99.90
3232;DHT22;1628;48.884;9.210;2022-12-18T12:39:57;0.60;99.90
3232;DHT22;1628;48.884;9.210;2022-12-18T12:42:30;0.80;99.90
3232;DHT22;1628;48.884;9.210;2022-12-18T12:45:20;0.80;99.90
3232;DHT22;1628;48.884;9.210;2022-12-18T12:47:49;0.70;99.90
3232;DHT22;1628;48.884;9.210;2022-12-18T12:50:19;0.80;99.90
3232;DHT22;1628;48.884;9.210;2022-12-18T12:52:49;0.80;99.90
3232;DHT22;1628;48.884;9.210;2022-12-18T12:55:19;0.90;99.90
3232;DHT22;1628;48.884;9.210;2022-12-18T12:57:56;0.80;99.90
3232;DHT22;1628;48.884;9.210;2022-12-18T13:00:29;0.70;99.90
3232;DHT22;1628;48.884;9.210;2022-12-18T13:03:06;0.70;99.90
3232;DHT22;1628;48.884;9.210;2022-12-18T13:05:40;0.60;99.90
3232;DHT22;1628;48.884;9.210;2022-12-18T13:08:09;0.50;99.90
3232;DHT22;1628;48.884;9.210;2022-12-18T13:10:37;0.50;99.90
3232;DHT22;1628;48.884;9.210;2022-12-18T13:13:08;0.60;99.90
3232;DHT22;1628;48.884;9.210;2022-12-18T13:15:38;0.60;99.90
3232;DHT22;1628;48.884;9.210;2022-12-18T13:18:17;0.70;99.90
3232;DHT22;1628;48.884;9.210;2022-12-18T13:20:45;0.70;99.90
3232;DHT22;1628;48.884;9.210;2022-12-18T13:26:31;0.80;99.90
3232;DHT22;1628;48.884;9.210;2022-12-18T13:29:00;0.80;99.90
3232;DHT22;1628;48.884;9.210;2022-12-18T13:31:59;0.80;99.90
3232;DHT22;1628;48.884;9.210;2022-12-18T13:34:27;0.70;99.90
3232;DHT22;1628;48.884;9.210;2022-12-18T13:36:57;0.70;99.90
3232;DHT22;1628;48.884;9.210;2022-12-18T13:39:44;0.80;99.90
3232;DHT22;1628;48.884;9.210;2022-12-18T13:42:38;0.90;99.90
3232;DHT22;1628;48.884;9.210;2022-12-18T13:45:41;0.90;99.90
3232;DHT22;1628;48.884;9.210;2022-12-18T13:48:19;1.00;99.90
3232;DHT22;1628;48.884;9.210;2022-12-18T13:50:55;1.00;99.90
3232;DHT22;1628;48.884;9.210;2022-12-18T13:53:26;1.00;99.90
3232;DHT22;1628;48.884;9.210;2022-12-18T13:55:54;1.00;99.90
3232;DHT22;1628;48.884;9.210;2022-12-18T13:58:21;1.00;99.90
3232;DHT22;1628;48.884;9.210;2022-12-18T14:00:49;1.00;99.90
3232;DHT22;1628;48.884;9.210;2022-12-18T14:03:22;1.00;99.90
3232;DHT22;1628;48.884;9.210;2022-12-18T14:05:54;1.00;99.90
3232;DHT22;1628;48.884;9.210;2022-12-18T14:08:21;1.00;99.90
3232;DHT22;1628;48.884;9.210;2022-12-18T14:10:49;0.90;99.90
3232;DHT22;1628;48.884;9.210;2022-12-18T14:13:22;0.90;99.90
3232;DHT22;1628;48.884;9.210;2022-12-18T14:15:51;0.90;99.90
3232;DHT22;1628;48.884;9.210;2022-12-18T14:18:21;0.80;99.90
3232;DHT22;1628;48.884;9.210;2022-12-18T14:20:50;0.70;99.90
3232;DHT22;1628;48.884;9.210;2022-12-18T14:23:32;0.60;99.90
3232;DHT22;1628;48.884;9.210;2022-12-18T14:26:00;0.60;99.90
3232;DHT22;1628;48.884;9.210;2022-12-18T14:28:27;0.50;99.90
3232;DHT22;1628;48.884;9.210;2022-12-18T14:30:55;0.50;99.90
3232;DHT22;1628;48.884;9.210;2022-12-18T14:33:23;0.50;99.90
3232;DHT22;1628;48.884;9.210;2022-12-18T14:35:56;0.40;99.90
3232;DHT22;1628;48.884;9.210;2022-12-18T14:38:27;0.40;99.90
3232;DHT22;1628;48.884;9.210;2022-12-18T14:40:56;0.30;99.90
3232;DHT22;1628;48.884;9.210;2022-12-18T14:43:23;0.30;99.90
3232;DHT22;1628;48.884;9.210;2022-12-18T14:45:50;0.20;99.90
3232;DHT22;1628;48.884;9.210;2022-12-18T14:48:20;0.10;99.90
3232;DHT22;1628;48.884;9.210;2022-12-18T14:50:55;0.00;99.90
3232;DHT22;1628;48.884;9.210;2022-12-18T14:53:37;0.00;99.90
3232;DHT22;1628;48.884;9.210;2022-12-18T14:56:15;0.00;99.90
3232;DHT22;1628;48.884;9.210;2022-12-18T14:58:51;-0.10;99.90
3232;DHT22;1628;48.884;9.210;2022-12-18T15:01:25;-0.20;99.90
3232;DHT22;1628;48.884;9.210;2022-12-18T15:03:54;-0.40;99.90
3232;DHT22;1628;48.884;9.210;2022-12-18T15:06:33;-0.50;99.90
3232;DHT22;1628;48.884;9.210;2022-12-18T15:09:02;-0.60;99.90
3232;DHT22;1628;48.884;9.210;2022-12-18T15:11:35;-0.70;99.90
3232;DHT22;1628;48.884;9.210;2022-12-18T15:14:23;-0.80;99.90
3232;DHT22;1628;48.884;9.210;2022-12-18T15:16:52;-1.00;99.90
3232;DHT22;1628;48.884;9.210;2022-12-18T15:19:21;-1.10;99.90
3232;DHT22;1628;48.884;9.210;2022-12-18T15:21:48;-1.20;99.90
3232;DHT22;1628;48.884;9.210;2022-12-18T15:24:21;-1.30;99.90
3232;DHT22;1628;48.884;9.210;2022-12-18T15:26:50;-1.30;99.90
3232;DHT22;1628;48.884;9.210;2022-12-18T15:29:19;-1.40;99.90
3232;DHT22;1628;48.884;9.210;2022-12-18T15:31:58;-1.50;99.90
3232;DHT22;1628;48.884;9.210;2022-12-18T15:34:27;-1.60;99.90
3232;DHT22;1628;48.884;9.210;2022-12-18T15:36:54;-1.70;99.90
3232;DHT22;1628;48.884;9.210;2022-12-18T15:39:20;-1.70;99.90
3232;DHT22;1628;48.884;9.210;2022-12-18T15:41:47;-1.80;99.90
3232;DHT22;1628;48.884;9.210;2022-12-18T15:44:32;-1.80;99.90
3232;DHT22;1628;48.884;9.210;2022-12-18T15:46:59;-1.80;99.90
3232;DHT22;1628;48.884;9.210;2022-12-18T15:49:27;-1.90;99.90
3232;DHT22;1628;48.884;9.210;2022-12-18T15:51:56;-2.00;99.90
3232;DHT22;1628;48.884;9.210;2022-12-18T15:54:23;-1.90;99.90
3232;DHT22;1628;48.884;9.210;2022-12-18T15:57:03;-2.00;99.90
3232;DHT22;1628;48.884;9.210;2022-12-18T15:59:47;-2.10;99.90
3232;DHT22;1628;48.884;9.210;2022-12-18T16:02:17;-2.10;99.90
3232;DHT22;1628;48.884;9.210;2022-12-18T16:04:45;-2.20;99.90
3232;DHT22;1628;48.884;9.210;2022-12-18T16:07:12;-2.10;99.90
3232;DHT22;1628;48.884;9.210;2022-12-18T16:09:39;-2.20;99.90
3232;DHT22;1628;48.884;9.210;2022-12-18T16:12:08;-2.20;99.90
3232;DHT22;1628;48.884;9.210;2022-12-18T16:14:40;-2.20;99.90
3232;DHT22;1628;48.884;9.210;2022-12-18T16:17:10;-2.20;99.90
3232;DHT22;1628;48.884;9.210;2022-12-18T16:19:38;-2.20;99.90
3232;DHT22;1628;48.884;9.210;2022-12-18T16:22:18;-2.30;99.90
3232;DHT22;1628;48.884;9.210;2022-12-18T16:24:46;-2.30;99.90
3232;DHT22;1628;48.884;9.210;2022-12-18T16:27:13;-2.30;99.90
3232;DHT22;1628;48.884;9.210;2022-12-18T16:29:39;-2.20;99.90
3232;DHT22;1628;48.884;9.210;2022-12-18T16:32:06;-2.20;99.90
3232;DHT22;1628;48.884;9.210;2022-12-18T16:34:34;-2.20;99.90
3232;DHT22;1628;48.884;9.210;2022-12-18T16:37:02;-2.20;99.90
3232;DHT22;1628;48.884;9.210;2022-12-18T16:39:31;-2.30;99.90
3232;DHT22;1628;48.884;9.210;2022-12-18T16:41:58;-2.30;99.90
3232;DHT22;1628;48.884;9.210;2022-12-18T16:44:25;-2.30;99.90
3232;DHT22;1628;48.884;9.210;2022-12-18T16:46:52;-2.30;99.90
3232;DHT22;1628;48.884;9.210;2022-12-18T16:49:19;-2.30;99.90
3232;DHT22;1628;48.884;9.210;2022-12-18T16:51:46;-2.30;99.90
3232;DHT22;1628;48.884;9.210;2022-12-18T16:54:13;-2.30;99.90
3232;DHT22;1628;48.884;9.210;2022-12-18T16:56:41;-2.40;99.90
3232;DHT22;1628;48.884;9.210;2022-12-18T16:59:10;-2.40;99.90
3232;DHT22;1628;48.884;9.210;2022-12-18T17:01:37;-2.40;99.90
3232;DHT22;1628;48.884;9.210;2022-12-18T17:04:06;-2.40;99.90
3232;DHT22;1628;48.884;9.210;2022-12-18T17:06:35;-2.40;99.90
3232;DHT22;1628;48.884;9.210;2022-12-18T17:09:04;-2.40;99.90
3232;DHT22;1628;48.884;9.210;2022-12-18T17:11:33;-2.40;99.90
3232;DHT22;1628;48.884;9.210;2022-12-18T17:14:05;-2.40;99.90
3232;DHT22;1628;48.884;9.210;2022-12-18T17:16:32;-2.40;99.90
3232;DHT22;1628;48.884;9.210;2022-12-18T17:18:59;-2.40;99.90
3232;DHT22;1628;48.884;9.210;2022-12-18T17:21:25;-2.40;99.90
3232;DHT22;1628;48.884;9.210;2022-12-18T17:23:53;-2.40;99.90
3232;DHT22;1628;48.884;9.210;2022-12-18T17:26:19;-2.40;99.90
3232;DHT22;1628;48.884;9.210;2022-12-18T17:28:46;-2.30;99.90
3232;DHT22;1628;48.884;9.210;2022-12-18T17:31:17;-2.30;99.90
3232;DHT22;1628;48.884;9.210;2022-12-18T17:33:45;-2.40;99.90
3232;DHT22;1628;48.884;9.210;2022-12-18T17:36:12;-2.30;99.90
3232;DHT22;1628;48.884;9.210;2022-12-18T17:38:40;-2.30;99.90
3232;DHT22;1628;48.884;9.210;2022-12-18T17:41:08;-2.30;99.90
3232;DHT22;1628;48.884;9.210;2022-12-18T17:43:35;-2.30;99.90
3232;DHT22;1628;48.884;9.210;2022-12-18T17:46:04;-2.20;99.90
3232;DHT22;1628;48.884;9.210;2022-12-18T17:48:32;-2.20;99.90
3232;DHT22;1628;48.884;9.210;2022-12-18T17:51:00;-2.20;99.90
3232;DHT22;1628;48.884;9.210;2022-12-18T17:53:26;-2.20;99.90
3232;DHT22;1628;48.884;9.210;2022-12-18T17:55:53;-2.20;99.90
3232;DHT22;1628;48.884;9.210;2022-12-18T17:58:20;-2.20;99.90
3232;DHT22;1628;48.884;9.210;2022-12-18T18:00:48;-2.20;99.90
3232;DHT22;1628;48.884;9.210;2022-12-18T18:03:14;-2.20;99.90
3232;DHT22;1628;48.884;9.210;2022-12-18T18:05:42;-2.20;99.90
3232;DHT22;1628;48.884;9.210;2022-12-18T18:08:09;-2.20;99.90
3232;DHT22;1628;48.884;9.210;2022-12-18T18:10:36;-2.20;99.90
3232;DHT22;1628;48.884;9.210;2022-12-18T18:13:04;-2.30;99.90
3232;DHT22;1628;48.884;9.210;2022-12-18T18:15:54;-2.30;99.90
3232;DHT22;1628;48.884;9.210;2022-12-18T18:18:21;-2.40;99.90
3232;DHT22;1628;48.884;9.210;2022-12-18T18:20:49;-2.40;99.90
3232;DHT22;1628;48.884;9.210;2022-12-18T18:23:16;-2.40;99.90
3232;DHT22;1628;48.884;9.210;2022-12-18T18:25:43;-2.40;99.90
3232;DHT22;1628;48.884;9.210;2022-12-18T18:28:10;-2.40;99.90
3232;DHT22;1628;48.884;9.210;2022-12-18T18:30:38;-2.40;99.90
3232;DHT22;1628;48.884;9.210;2022-12-18T18:33:05;-2.40;99.90
3232;DHT22;1628;48.884;9.210;2022-12-18T18:35:31;-2.30;99.90
3232;DHT22;1628;48.884;9.210;2022-12-18T18:37:59;-2.30;99.90
3232;DHT22;1628;48.884;9.210;2022-12-18T18:40:28;-2.30;99.90
3232;DHT22;1628;48.884;9.210;2022-12-18T18:42:55;-2.30;99.90
3232;DHT22;1628;48.884;9.210;2022-12-18T18:45:22;-2.40;99.90
3232;DHT22;1628;48.884;9.210;2022-12-18T18:47:49;-2.40;99.90
3232;DHT22;1628;48.884;9.210;2022-12-18T18:50:15;-2.40;99.90
3232;DHT22;1628;48.884;9.210;2022-12-18T18:52:42;-2.40;99.90
3232;DHT22;1628;48.884;9.210;2022-12-18T18:55:10;-2.40;99.90
3232;DHT22;1628;48.884;9.210;2022-12-18T18:57:36;-2.40;99.90
3232;DHT22;1628;48.884;9.210;2022-12-18T19:00:04;-2.50;99.90
3232;DHT22;1628;48.884;9.210;2022-12-18T19:02:31;-2.40;99.90
3232;DHT22;1628;48.884;9.210;2022-12-18T19:04:57;-2.40;99.90
3232;DHT22;1628;48.884;9.210;2022-12-18T19:07:24;-2.50;99.90
3232;DHT22;1628;48.884;9.210;2022-12-18T19:09:51;-2.50;99.90
3232;DHT22;1628;48.884;9.210;2022-12-18T19:12:19;-2.50;99.90
3232;DHT22;1628;48.884;9.210;2022-12-18T19:15:05;-2.40;99.90
3232;DHT22;1628;48.884;9.210;2022-12-18T19:17:32;-2.50;99.90
3232;DHT22;1628;48.884;9.210;2022-12-18T19:19:59;-2.50;99.90
3232;DHT22;1628;48.884;9.210;2022-12-18T19:22:25;-2.40;99.90
3232;DHT22;1628;48.884;9.210;2022-12-18T19:24:52;-2.40;99.90
3232;DHT22;1628;48.884;9.210;2022-12-18T19:27:20;-2.40;99.90
3232;DHT22;1628;48.884;9.210;2022-12-18T19:29:47;-2.40;99.90
3232;DHT22;1628;48.884;9.210;2022-12-18T19:32:15;-2.40;99.90
3232;DHT22;1628;48.884;9.210;2022-12-18T19:34:41;-2.40;99.90
3232;DHT22;1628;48.884;9.210;2022-12-18T19:37:08;-2.40;99.90
3232;DHT22;1628;48.884;9.210;2022-12-18T19:39:35;-2.30;99.90
3232;DHT22;1628;48.884;9.210;2022-12-18T19:42:01;-2.30;99.90
3232;DHT22;1628;48.884;9.210;2022-12-18T19:44:29;-2.30;99.90
3232;DHT22;1628;48.884;9.210;2022-12-18T19:46:56;-2.30;99.90
3232;DHT22;1628;48.884;9.210;2022-12-18T19:49:23;-2.30;99.90
3232;DHT22;1628;48.884;9.210;2022-12-18T19:51:49;-2.30;99.90
3232;DHT22;1628;48.884;9.210;2022-12-18T19:54:16;-2.30;99.90
3232;DHT22;1628;48.884;9.210;2022-12-18T19:56:43;-2.30;99.90
3232;DHT22;1628;48.884;9.210;2022-12-18T19:59:10;-2.30;99.90
3232;DHT22;1628;48.884;9.210;2022-12-18T20:01:39;-2.30;99.90
3232;DHT22;1628;48.884;9.210;2022-12-18T20:04:06;-2.30;99.90
3232;DHT22;1628;48.884;9.210;2022-12-18T20:06:34;-2.30;99.90
3232;DHT22;1628;48.884;9.210;2022-12-18T20:09:04;-2.30;99.90
3232;DHT22;1628;48.884;9.210;2022-12-18T20:11:32;-2.30;99.90
3232;DHT22;1628;48.884;9.210;2022-12-18T20:13:59;-2.30;99.90
3232;DHT22;1628;48.884;9.210;2022-12-18T20:16:26;-2.30;99.90
3232;DHT22;1628;48.884;9.210;2022-12-18T20:18:54;-2.30;99.90
3232;DHT22;1628;48.884;9.210;2022-12-18T20:21:21;-2.30;99.90
3232;DHT22;1628;48.884;9.210;2022-12-18T20:23:48;-2.30;99.90
3232;DHT22;1628;48.884;9.210;2022-12-18T20:26:15;-2.20;99.90
3232;DHT22;1628;48.884;9.210;2022-12-18T20:28:41;-2.20;99.90
3232;DHT22;1628;48.884;9.210;2022-12-18T20:31:10;-2.20;99.90
3232;DHT22;1628;48.884;9.210;2022-12-18T20:33:36;-2.20;99.90
3232;DHT22;1628;48.884;9.210;2022-12-18T20:36:09;-2.20;99.90
3232;DHT22;1628;48.884;9.210;2022-12-18T20:38:38;-2.30;99.90
3232;DHT22;1628;48.884;9.210;2022-12-18T20:41:06;-2.20;99.90
3232;DHT22;1628;48.884;9.210;2022-12-18T20:43:34;-2.20;99.90
3232;DHT22;1628;48.884;9.210;2022-12-18T20:46:01;-2.20;99.90
3232;DHT22;1628;48.884;9.210;2022-12-18T20:48:28;-2.20;99.90
3232;DHT22;1628;48.884;9.210;2022-12-18T20:50:57;-2.20;99.90
3232;DHT22;1628;48.884;9.210;2022-12-18T20:53:26;-2.20;99.90
3232;DHT22;1628;48.884;9.210;2022-12-18T20:55:52;-2.20;99.90
3232;DHT22;1628;48.884;9.210;2022-12-18T20:58:19;-2.20;99.90
3232;DHT22;1628;48.884;9.210;2022-12-18T21:00:46;-2.20;99.90
3232;DHT22;1628;48.884;9.210;2022-12-18T21:03:12;-2.20;99.90
3232;DHT22;1628;48.884;9.210;2022-12-18T21:05:39;-2.20;99.90
3232;DHT22;1628;48.884;9.210;2022-12-18T21:08:06;-2.10;99.90
3232;DHT22;1628;48.884;9.210;2022-12-18T21:10:34;-2.10;99.90
3232;DHT22;1628;48.884;9.210;2022-12-18T21:13:00;-2.10;99.90
3232;DHT22;1628;48.884;9.210;2022-12-18T21:15:26;-2.00;99.90
3232;DHT22;1628;48.884;9.210;2022-12-18T21:17:53;-2.00;99.90
3232;DHT22;1628;48.884;9.210;2022-12-18T21:20:19;-2.00;99.90
3232;DHT22;1628;48.884;9.210;2022-12-18T21:22:46;-2.00;99.90
3232;DHT22;1628;48.884;9.210;2022-12-18T21:25:13;-2.10;99.90
3232;DHT22;1628;48.884;9.210;2022-12-18T21:27:41;-2.10;99.90